createdAt,value
2022-08-09T00:01:48.379Z,24.79
2022-08-09T00:04:34.648Z,24.71
2022-08-09T00:07:10.527Z,24.67
2022-08-09T00:09:38.776Z,24.61
2022-08-09T00:12:07.131Z,24.61
2022-08-09T00:14:37.777Z,24.56
2022-08-09T00:17:07.293Z,24.56
2022-08-09T00:19:35.868Z,24.55
2022-08-09T00:22:04.522Z,24.54
2022-08-09T00:24:32.878Z,24.47
2022-08-09T00:27:01.831Z,24.40
2022-08-09T00:30:16.353Z,24.35
2022-08-09T00:32:25.307Z,24.35
2022-08-09T00:34:54.376Z,24.33
2022-08-09T00:37:21.697Z,24.24
2022-08-09T00:40:13.363Z,24.17
2022-08-09T00:44:16.377Z,24.20
2022-08-09T00:45:23.717Z,24.22
2022-08-09T00:47:52.864Z,24.30
2022-08-09T00:50:26.192Z,24.49
2022-08-09T00:52:55.087Z,24.63
2022-08-09T00:56:03.596Z,24.70
2022-08-09T00:58:14.891Z,24.69
2022-08-09T01:00:58.910Z,24.72
2022-08-09T01:04:22.370Z,24.77
2022-08-09T01:08:00.026Z,24.79
2022-08-09T01:10:43.986Z,24.85
2022-08-09T01:13:18.234Z,24.97
2022-08-09T01:15:55.310Z,25.03
2022-08-09T01:18:31.366Z,25.11
2022-08-09T01:22:10.309Z,25.15
2022-08-09T01:25:19.206Z,25.07
2022-08-09T01:27:57.737Z,24.96
2022-08-09T01:30:35.755Z,24.92
2022-08-09T01:33:18.733Z,24.85
2022-08-09T01:35:54.933Z,24.79
2022-08-09T01:38:31.797Z,24.63
2022-08-09T01:41:25.866Z,24.57
2022-08-09T01:44:04.191Z,24.48
2022-08-09T01:46:42.336Z,24.47
2022-08-09T01:49:18.661Z,24.40
2022-08-09T01:52:07.429Z,24.34
2022-08-09T01:54:52.708Z,24.30
2022-08-09T01:57:45.981Z,24.13
2022-08-09T02:00:35.198Z,24.03
2022-08-09T02:03:06.654Z,24.01
2022-08-09T02:05:38.069Z,23.99
2022-08-09T02:08:38.949Z,23.80
2022-08-09T02:11:16.860Z,23.72
2022-08-09T02:14:06.124Z,23.72
2022-08-09T02:16:53.014Z,23.61
2022-08-09T02:19:38.939Z,23.60
2022-08-09T02:22:37.102Z,23.54
2022-08-09T02:25:42.414Z,23.48
2022-08-09T02:28:25.525Z,23.35
2022-08-09T02:31:11.426Z,23.30
2022-08-09T02:34:07.598Z,23.30
2022-08-09T02:36:39.724Z,23.30
2022-08-09T02:39:33.653Z,23.28
2022-08-09T02:42:07.561Z,23.22
2022-08-09T02:44:40.992Z,23.14
2022-08-09T02:47:14.073Z,23.13
2022-08-09T02:50:01.297Z,23.11
2022-08-09T02:52:58.080Z,23.11
2022-08-09T02:55:39.473Z,23.05
2022-08-09T02:58:32.771Z,22.98
2022-08-09T03:01:11.356Z,22.90
2022-08-09T03:04:18.204Z,22.78
2022-08-09T03:06:39.492Z,22.82
2022-08-09T03:09:09.841Z,22.80
2022-08-09T03:12:09.653Z,22.76
2022-08-09T03:14:29.233Z,22.77
2022-08-09T03:17:01.511Z,22.81
2022-08-09T03:19:59.162Z,22.89
2022-08-09T03:22:25.420Z,22.95
2022-08-09T03:25:21.798Z,22.93
2022-08-09T03:27:52.786Z,22.85
2022-08-09T03:30:29.482Z,22.92
2022-08-09T03:33:17.645Z,22.86
2022-08-09T03:36:12.737Z,22.80
2022-08-09T03:38:43.612Z,22.84
2022-08-09T03:41:16.587Z,22.81
2022-08-09T03:44:04.036Z,22.77
2022-08-09T03:46:35.326Z,22.76
2022-08-09T03:49:07.873Z,22.77
2022-08-09T03:51:56.288Z,22.76
2022-08-09T03:54:38.513Z,22.73
2022-08-09T03:57:20.675Z,22.81
2022-08-09T03:59:56.118Z,22.80
2022-08-09T04:02:31.505Z,22.81
2022-08-09T04:05:06.706Z,22.78
2022-08-09T04:07:53.596Z,22.83
2022-08-09T04:10:29.336Z,22.84
2022-08-09T04:13:03.772Z,22.80
2022-08-09T04:15:52.434Z,22.75
2022-08-09T04:18:21.514Z,22.75
2022-08-09T04:20:51.259Z,22.73
2022-08-09T04:23:23.189Z,22.73
2022-08-09T04:25:53.523Z,22.68
2022-08-09T04:28:34.163Z,22.63
2022-08-09T04:31:07.900Z,22.62
2022-08-09T04:33:51.708Z,22.67
2022-08-09T04:36:28.567Z,22.63
2022-08-09T04:39:00.641Z,22.57
2022-08-09T04:41:32.131Z,22.62
2022-08-09T04:44:06.309Z,22.67
2022-08-09T04:46:56.729Z,22.72
2022-08-09T04:49:30.498Z,22.78
2022-08-09T04:52:21.835Z,22.81
2022-08-09T04:54:59.471Z,22.85
2022-08-09T04:57:47.448Z,22.90
2022-08-09T05:00:16.846Z,22.94
2022-08-09T05:02:51.891Z,23.01
2022-08-09T05:05:32.162Z,23.16
2022-08-09T05:08:10.340Z,23.24
2022-08-09T05:10:42.789Z,23.35
2022-08-09T05:13:13.005Z,23.39
2022-08-09T05:15:47.974Z,23.46
2022-08-09T05:18:39.707Z,23.47
2022-08-09T05:21:20.744Z,23.51
2022-08-09T05:23:59.736Z,23.54
2022-08-09T05:26:37.413Z,23.56
2022-08-09T05:29:24.094Z,23.61
2022-08-09T05:32:00.517Z,23.64
2022-08-09T05:34:32.673Z,23.72
2022-08-09T05:37:11.254Z,23.79
2022-08-09T05:39:43.524Z,23.83
2022-08-09T05:42:17.273Z,23.84
2022-08-09T05:44:54.252Z,23.85
2022-08-09T05:47:27.119Z,23.84
2022-08-09T05:50:23.221Z,23.96
2022-08-09T05:52:52.092Z,24.09
2022-08-09T05:55:24.018Z,24.15
2022-08-09T05:57:57.371Z,24.16
2022-08-09T06:00:33.110Z,24.18
2022-08-09T06:03:04.067Z,24.24
2022-08-09T06:05:58.126Z,24.28
2022-08-09T06:08:25.673Z,24.38
2022-08-09T06:10:55.612Z,24.41
2022-08-09T06:13:24.190Z,24.28
2022-08-09T06:15:52.949Z,24.31
2022-08-09T06:18:24.962Z,24.50
2022-08-09T06:20:57.686Z,24.73
2022-08-09T06:23:58.538Z,24.93
2022-08-09T06:26:22.413Z,25.00
2022-08-09T06:29:00.368Z,24.83
2022-08-09T06:31:39.277Z,24.67
2022-08-09T06:34:19.571Z,24.65
2022-08-09T06:36:46.862Z,24.70
2022-08-09T06:39:16.394Z,24.67
2022-08-09T06:42:06.370Z,24.66
2022-08-09T06:44:32.174Z,24.66
2022-08-09T06:47:01.127Z,24.70
2022-08-09T06:50:11.539Z,24.78
2022-08-09T06:52:17.588Z,24.99
2022-08-09T06:54:48.880Z,25.15
2022-08-09T06:57:18.438Z,25.23
2022-08-09T07:00:48.871Z,25.23
2022-08-09T07:02:41.629Z,25.18
2022-08-09T07:05:10.678Z,25.27
2022-08-09T07:07:59.727Z,25.33
2022-08-09T07:10:31.283Z,25.61
2022-08-09T07:13:05.374Z,25.63
2022-08-09T07:16:39.286Z,25.57
2022-08-09T07:18:35.926Z,25.61
2022-08-09T07:21:07.736Z,25.79
2022-08-09T07:23:36.160Z,25.87
2022-08-09T07:26:04.322Z,25.73
2022-08-09T07:28:34.811Z,25.72
2022-08-09T07:31:04.915Z,25.77
2022-08-09T07:33:52.730Z,25.77
2022-08-09T07:36:20.872Z,25.84
2022-08-09T07:38:58.235Z,25.95
2022-08-09T07:41:28.035Z,26.08
2022-08-09T07:44:02.182Z,26.23
2022-08-09T07:46:29.911Z,26.26
2022-08-09T07:48:59.515Z,26.45
2022-08-09T07:52:06.332Z,26.47
2022-08-09T07:54:28.014Z,26.44
2022-08-09T07:56:58.591Z,26.35
2022-08-09T07:59:34.479Z,26.39
2022-08-09T08:02:19.109Z,26.27
2022-08-09T08:04:48.638Z,26.21
2022-08-09T08:08:44.515Z,26.12
2022-08-09T08:10:10.743Z,26.22
2022-08-09T08:12:45.037Z,26.49
2022-08-09T08:15:23.204Z,26.74
2022-08-09T08:17:58.038Z,26.70
2022-08-09T08:20:33.143Z,26.66
2022-08-09T08:23:16.200Z,26.72
2022-08-09T08:25:50.083Z,26.73
2022-08-09T08:28:31.868Z,26.75
2022-08-09T08:31:10.573Z,26.90
2022-08-09T08:33:53.057Z,26.98
2022-08-09T08:36:29.745Z,27.12
2022-08-09T08:38:59.700Z,27.03
2022-08-09T08:41:50.457Z,27.02
2022-08-09T08:44:23.116Z,26.97
2022-08-09T08:47:03.214Z,27.09
2022-08-09T08:49:46.301Z,27.25
2022-08-09T08:55:19.150Z,27.23
2022-08-09T08:57:57.421Z,27.39
2022-08-09T09:00:34.757Z,27.22
2022-08-09T09:03:08.708Z,27.38
2022-08-09T09:05:58.223Z,27.57
2022-08-09T09:08:38.042Z,27.62
2022-08-09T09:11:13.740Z,27.70
2022-08-09T09:13:57.234Z,27.72
2022-08-09T09:16:35.119Z,27.72
2022-08-09T09:19:37.149Z,27.56
2022-08-09T09:22:26.832Z,27.65
2022-08-09T09:26:01.354Z,27.61
2022-08-09T09:28:05.101Z,27.59
2022-08-09T09:30:41.888Z,27.66
2022-08-09T09:33:14.256Z,27.56
2022-08-09T09:36:20.226Z,27.68
2022-08-09T09:38:57.984Z,27.73
2022-08-09T09:41:33.241Z,27.76
2022-08-09T09:44:31.399Z,27.99
2022-08-09T09:47:11.683Z,28.17
2022-08-09T09:50:15.293Z,28.31
2022-08-09T09:52:37.346Z,28.29
2022-08-09T09:55:16.141Z,28.25
2022-08-09T09:58:17.010Z,28.28
2022-08-09T10:00:58.443Z,28.03
2022-08-09T10:03:57.028Z,28.18
2022-08-09T10:06:42.716Z,28.56
2022-08-09T10:09:22.312Z,28.59
2022-08-09T10:12:12.486Z,28.45
2022-08-09T10:14:48.704Z,28.03
2022-08-09T10:17:50.895Z,28.53
2022-08-09T10:20:32.347Z,28.77
2022-08-09T10:23:23.824Z,28.76
2022-08-09T10:26:04.372Z,28.82
2022-08-09T10:28:38.690Z,28.90
2022-08-09T10:34:11.450Z,29.02
2022-08-09T10:36:54.255Z,29.14
2022-08-09T10:39:23.360Z,28.84
2022-08-09T10:41:56.065Z,28.55
2022-08-09T10:44:30.323Z,29.02
2022-08-09T10:47:28.171Z,29.34
2022-08-09T10:51:09.642Z,29.32
2022-08-09T10:53:54.273Z,29.61
2022-08-09T10:56:30.822Z,29.51
2022-08-09T10:59:01.590Z,29.47
2022-08-09T11:03:15.573Z,29.32
2022-08-09T11:04:30.803Z,29.28
2022-08-09T11:07:00.276Z,29.33
2022-08-09T11:09:56.441Z,29.39
2022-08-09T11:12:32.017Z,29.71
2022-08-09T11:15:33.855Z,30.12
2022-08-09T11:18:05.837Z,30.17
2022-08-09T11:20:49.758Z,30.18
2022-08-09T11:23:24.105Z,30.07
2022-08-09T11:25:57.774Z,30.01
2022-08-09T11:28:55.916Z,30.11
2022-08-09T11:31:52.791Z,30.47
2022-08-09T11:34:43.842Z,30.54
2022-08-09T11:37:41.012Z,30.39
2022-08-09T11:40:32.058Z,30.26
2022-08-09T11:43:02.695Z,29.97
2022-08-09T11:47:14.438Z,30.39
2022-08-09T11:50:55.020Z,30.29
2022-08-09T11:53:15.454Z,30.64
2022-08-09T11:55:53.644Z,30.87
2022-08-09T11:58:53.876Z,31.21
2022-08-09T12:02:17.807Z,31.16
2022-08-09T12:04:37.484Z,31.22
2022-08-09T12:07:08.419Z,31.12
2022-08-09T12:09:36.760Z,31.09
2022-08-09T12:12:28.667Z,31.23
2022-08-09T12:15:50.094Z,31.17
2022-08-09T12:18:29.861Z,31.30
2022-08-09T12:21:26.397Z,31.26
2022-08-09T12:24:09.683Z,31.41
2022-08-09T12:28:59.088Z,31.35
2022-08-09T12:30:04.338Z,31.32
2022-08-09T12:32:44.998Z,31.51
2022-08-09T12:35:19.061Z,30.24
2022-08-09T12:37:50.091Z,30.30
2022-08-09T12:40:24.973Z,31.14
2022-08-09T12:42:54.072Z,31.91
2022-08-09T12:45:34.237Z,31.90
2022-08-09T12:48:31.082Z,32.12
2022-08-09T12:51:00.435Z,31.81
2022-08-09T12:53:40.828Z,32.20
2022-08-09T12:56:43.325Z,32.47
2022-08-09T12:59:19.949Z,32.49
2022-08-09T13:02:07.233Z,32.79
2022-08-09T13:04:38.741Z,32.69
2022-08-09T13:07:19.533Z,32.77
2022-08-09T13:10:04.633Z,32.69
2022-08-09T13:12:32.509Z,33.05
2022-08-09T13:15:10.128Z,32.72
2022-08-09T13:18:03.806Z,32.00
2022-08-09T13:21:03.810Z,31.94
2022-08-09T13:24:44.372Z,32.99
2022-08-09T13:26:42.756Z,35.13
2022-08-09T13:29:28.625Z,35.78
2022-08-09T13:32:19.414Z,36.26
2022-08-09T13:34:54.059Z,36.88
2022-08-09T13:37:51.120Z,35.48
2022-08-09T13:41:54.828Z,37.29
2022-08-09T13:42:59.811Z,37.59
2022-08-09T13:46:42.450Z,36.55
2022-08-09T13:48:21.941Z,38.08
2022-08-09T13:51:19.770Z,38.40
2022-08-09T13:53:48.597Z,39.25
2022-08-09T13:56:16.518Z,38.92
2022-08-09T13:58:47.787Z,39.22
2022-08-09T14:02:01.105Z,38.89
2022-08-09T14:04:05.211Z,38.42
2022-08-09T14:06:43.668Z,40.06
2022-08-09T14:09:13.737Z,39.04
2022-08-09T14:11:47.756Z,39.28
2022-08-09T14:14:23.862Z,39.68
2022-08-09T14:16:55.612Z,40.53
2022-08-09T14:19:24.354Z,39.18
2022-08-09T14:21:52.476Z,39.64
2022-08-09T14:24:22.279Z,39.68
2022-08-09T14:27:01.264Z,39.49
2022-08-09T14:30:35.227Z,39.61
2022-08-09T14:32:20.086Z,40.02
2022-08-09T14:34:59.600Z,40.17
2022-08-09T14:37:28.584Z,42.36
2022-08-09T14:40:09.696Z,41.80
2022-08-09T14:42:37.776Z,41.90
2022-08-09T14:46:57.173Z,41.13
2022-08-09T14:48:02.460Z,41.52
2022-08-09T14:50:34.942Z,42.80
2022-08-09T14:53:13.708Z,42.53
2022-08-09T14:55:47.774Z,41.71
2022-08-09T14:58:19.113Z,40.91
2022-08-09T15:00:47.924Z,42.54
2022-08-09T15:03:20.184Z,40.91
2022-08-09T15:05:52.423Z,42.06
2022-08-09T15:08:25.628Z,40.13
2022-08-09T15:11:00.756Z,41.47
2022-08-09T15:13:48.280Z,41.99
2022-08-09T15:16:19.992Z,42.75
2022-08-09T15:18:49.111Z,41.93
2022-08-09T15:21:56.132Z,41.90
2022-08-09T15:24:11.455Z,39.23
2022-08-09T15:26:45.886Z,38.28
2022-08-09T15:30:48.244Z,40.51
2022-08-09T15:32:03.543Z,42.54
2022-08-09T15:34:34.512Z,43.67
2022-08-09T15:37:23.985Z,43.34
2022-08-09T15:39:54.694Z,42.60
2022-08-09T15:42:22.487Z,42.99
2022-08-09T15:44:50.871Z,42.01
2022-08-09T15:47:22.274Z,43.20
2022-08-09T15:50:03.891Z,41.66
2022-08-09T15:52:36.476Z,42.80
2022-08-09T15:55:09.037Z,42.57
2022-08-09T15:57:44.253Z,42.88
2022-08-09T16:00:25.878Z,43.13
2022-08-09T16:02:56.136Z,43.01
2022-08-09T16:05:47.636Z,42.03
2022-08-09T16:08:31.274Z,42.85
2022-08-09T16:11:01.680Z,43.02
2022-08-09T16:14:03.978Z,43.63
2022-08-09T16:16:27.998Z,43.17
2022-08-09T16:18:56.229Z,42.27
2022-08-09T16:21:25.142Z,42.17
2022-08-09T16:24:01.734Z,42.23
2022-08-09T16:26:35.041Z,41.90
2022-08-09T16:29:12.570Z,42.54
2022-08-09T16:32:20.316Z,41.23
2022-08-09T16:34:55.743Z,41.75
2022-08-09T16:37:55.710Z,42.31
2022-08-09T16:40:12.627Z,41.61
2022-08-09T16:42:40.764Z,41.40
2022-08-09T16:45:18.703Z,41.58
2022-08-09T16:48:43.171Z,40.85
2022-08-09T16:50:38.641Z,41.65
2022-08-09T16:53:06.895Z,42.33
2022-08-09T16:55:58.698Z,41.42
2022-08-09T16:58:25.182Z,41.89
2022-08-09T17:00:53.489Z,41.87
2022-08-09T17:03:22.999Z,41.08
2022-08-09T17:06:03.402Z,41.32
2022-08-09T17:08:42.960Z,40.93
2022-08-09T17:11:41.073Z,41.37
2022-08-09T17:14:26.116Z,40.20
2022-08-09T17:17:02.895Z,40.84
2022-08-09T17:19:46.562Z,40.66
2022-08-09T17:22:28.818Z,40.25
2022-08-09T17:25:03.563Z,39.37
2022-08-09T17:27:38.667Z,37.43
2022-08-09T17:30:13.016Z,35.14
2022-08-09T17:32:45.225Z,34.21
2022-08-09T17:35:14.685Z,34.00
2022-08-09T17:38:12.452Z,33.70
2022-08-09T17:40:35.131Z,33.44
2022-08-09T17:43:32.783Z,33.06
2022-08-09T17:46:03.416Z,32.69
2022-08-09T17:48:38.289Z,32.73
2022-08-09T17:51:18.754Z,32.42
2022-08-09T17:53:54.629Z,32.14
2022-08-09T17:56:35.930Z,32.00
2022-08-09T17:59:09.449Z,31.79
2022-08-09T18:02:06.870Z,31.43
2022-08-09T18:04:31.630Z,31.31
2022-08-09T18:07:00.272Z,31.27
2022-08-09T18:09:41.222Z,31.10
2022-08-09T18:12:19.514Z,30.93
2022-08-09T18:14:55.087Z,30.81
2022-08-09T18:18:03.924Z,30.66
2022-08-09T18:20:54.197Z,30.60
2022-08-09T18:23:05.647Z,30.43
2022-08-09T18:25:52.365Z,30.35
2022-08-09T18:30:36.153Z,30.20
2022-08-09T18:31:25.024Z,30.01
2022-08-09T18:33:59.808Z,29.95
2022-08-09T18:36:54.316Z,29.76
2022-08-09T18:39:32.807Z,29.61
2022-08-09T18:42:29.513Z,29.52
2022-08-09T18:45:08.709Z,29.50
2022-08-09T18:47:37.856Z,29.34
2022-08-09T18:50:34.187Z,29.26
2022-08-09T18:53:13.408Z,29.22
2022-08-09T18:56:06.390Z,29.11
2022-08-09T18:58:34.827Z,29.06
2022-08-09T19:01:06.382Z,28.98
2022-08-09T19:03:38.496Z,28.89
2022-08-09T19:06:24.202Z,28.79
2022-08-09T19:10:13.243Z,28.77
2022-08-09T19:12:36.539Z,28.71
2022-08-09T19:15:07.969Z,28.64
2022-08-09T19:17:54.473Z,28.59
2022-08-09T19:20:26.348Z,28.59
2022-08-09T19:23:16.585Z,28.53
2022-08-09T19:26:02.010Z,28.46
2022-08-09T19:29:15.364Z,28.44
2022-08-09T19:31:51.144Z,28.35
2022-08-09T19:34:24.616Z,28.23
2022-08-09T19:36:57.735Z,28.18
2022-08-09T19:39:28.872Z,28.08
2022-08-09T19:42:41.230Z,28.02
2022-08-09T19:45:15.377Z,28.03
2022-08-09T19:47:44.404Z,28.00
2022-08-09T19:50:50.204Z,28.02
2022-08-09T19:53:04.804Z,27.99
2022-08-09T19:55:52.892Z,27.97
2022-08-09T19:58:25.548Z,27.97
2022-08-09T20:00:58.380Z,27.88
2022-08-09T20:04:18.114Z,27.84
2022-08-09T20:06:23.390Z,27.84
2022-08-09T20:08:57.233Z,27.87
2022-08-09T20:11:42.949Z,27.88
2022-08-09T20:14:50.097Z,27.79
2022-08-09T20:17:19.877Z,27.70
2022-08-09T20:19:53.917Z,27.62
2022-08-09T20:22:24.174Z,27.60
2022-08-09T20:24:59.324Z,27.50
2022-08-09T20:27:29.126Z,27.45
2022-08-09T20:29:57.941Z,27.43
2022-08-09T20:32:31.258Z,27.42
2022-08-09T20:35:02.148Z,27.36
2022-08-09T20:38:08.658Z,27.28
2022-08-09T20:40:26.511Z,27.21
2022-08-09T20:43:00.421Z,27.14
2022-08-09T20:46:00.492Z,27.17
2022-08-09T20:48:31.706Z,27.13
2022-08-09T20:51:01.275Z,27.08
2022-08-09T20:53:36.912Z,27.01
2022-08-09T20:56:20.529Z,26.96
2022-08-09T20:58:58.846Z,26.91
2022-08-09T21:01:33.248Z,26.89
2022-08-09T21:05:50.730Z,26.89
2022-08-09T21:07:11.962Z,26.81
2022-08-09T21:09:56.869Z,26.75
2022-08-09T21:15:23.728Z,26.70
2022-08-09T21:18:21.069Z,26.66
2022-08-09T21:20:54.215Z,26.61
2022-08-09T21:23:35.944Z,26.56
2022-08-09T21:26:12.522Z,26.44
2022-08-09T21:28:55.341Z,26.40
2022-08-09T21:31:23.605Z,26.38
2022-08-09T21:33:56.701Z,26.31
2022-08-09T21:36:28.599Z,26.30
2022-08-09T21:38:59.626Z,26.27
2022-08-09T21:42:04.514Z,26.24
2022-08-09T21:44:33.785Z,26.22
2022-08-09T21:47:10.301Z,26.19
2022-08-09T21:49:43.351Z,26.16
2022-08-09T21:52:17.628Z,26.21
2022-08-09T21:55:03.162Z,26.21
2022-08-09T21:57:39.191Z,26.27
2022-08-09T22:00:32.396Z,26.28
2022-08-09T22:03:19.118Z,26.34
2022-08-09T22:05:53.307Z,26.37
2022-08-09T22:08:25.932Z,26.33
2022-08-09T22:11:26.442Z,26.28
2022-08-09T22:13:48.830Z,26.30
2022-08-09T22:16:22.864Z,26.26
2022-08-09T22:18:55.915Z,26.32
2022-08-09T22:21:51.186Z,26.35
2022-08-09T22:24:24.066Z,26.36
2022-08-09T22:26:53.745Z,26.43
2022-08-09T22:29:28.824Z,26.49
2022-08-09T22:32:07.212Z,26.53
2022-08-09T22:35:02.259Z,26.57
2022-08-09T22:38:07.144Z,26.61
2022-08-09T22:40:35.743Z,26.55
2022-08-09T22:43:16.192Z,26.56
2022-08-09T22:48:16.013Z,26.53
2022-08-09T22:48:39.026Z,26.51
2022-08-09T22:51:23.738Z,26.54
2022-08-09T22:54:01.070Z,26.50
2022-08-09T22:56:59.484Z,26.52
2022-08-09T22:59:55.905Z,26.54
2022-08-09T23:02:15.948Z,26.51
2022-08-09T23:04:53.668Z,26.56
2022-08-09T23:08:27.826Z,26.59
2022-08-09T23:10:38.204Z,26.54
2022-08-09T23:13:12.687Z,26.51
2022-08-09T23:15:43.122Z,26.46
2022-08-09T23:18:11.449Z,26.37
2022-08-09T23:20:38.881Z,26.29
2022-08-09T23:23:31.866Z,26.29
2022-08-09T23:26:01.950Z,26.28
2022-08-09T23:28:34.126Z,26.27
2022-08-09T23:31:03.570Z,26.24
2022-08-09T23:34:00.952Z,26.22
2022-08-09T23:36:56.837Z,26.26
2022-08-09T23:39:25.182Z,26.25
2022-08-09T23:41:52.530Z,26.26
2022-08-09T23:44:22.360Z,26.19
2022-08-09T23:46:52.892Z,26.14
2022-08-09T23:49:26.084Z,26.11
2022-08-09T23:51:54.216Z,26.13
2022-08-09T23:54:26.740Z,26.08
2022-08-09T23:56:58.212Z,26.07
